createdAt,value
2019-04-27T00:01:05.186Z,12.88
2019-04-27T00:03:36.469Z,12.63
2019-04-27T00:06:14.656Z,13.17
2019-04-27T00:08:44.977Z,12.15
2019-04-27T00:11:15.145Z,12.15
2019-04-27T00:13:45.388Z,12.70
2019-04-27T00:16:15.906Z,12.15
2019-04-27T00:18:49.863Z,13.50
2019-04-27T00:21:33.575Z,12.90
2019-04-27T00:24:04.717Z,13.45
2019-04-27T00:26:33.537Z,15.32
2019-04-27T00:29:05.060Z,13.45
2019-04-27T00:31:33.811Z,14.50
2019-04-27T00:34:03.568Z,13.20
2019-04-27T00:36:53.452Z,13.62
2019-04-27T00:39:36.228Z,13.13
2019-04-27T00:42:05.036Z,13.83
2019-04-27T00:44:37.388Z,13.45
2019-04-27T00:47:07.669Z,15.55
2019-04-27T00:49:38.979Z,14.90
2019-04-27T00:52:07.750Z,13.68
2019-04-27T00:54:39.914Z,14.33
2019-04-27T00:57:26.956Z,16.67
2019-04-27T01:00:05.553Z,14.43
2019-04-27T01:02:43.553Z,14.20
2019-04-27T01:05:17.605Z,16.35
2019-04-27T01:07:48.711Z,17.23
2019-04-27T01:10:20.339Z,16.73
2019-04-27T01:12:49.049Z,15.75
2019-04-27T01:15:17.838Z,14.50
2019-04-27T01:17:46.620Z,16.87
2019-04-27T01:20:24.957Z,16.67
2019-04-27T01:22:53.656Z,16.25
2019-04-27T01:25:24.042Z,15.98
2019-04-27T01:27:59.821Z,16.00
2019-04-27T01:30:42.328Z,15.80
2019-04-27T01:33:14.499Z,15.40
2019-04-27T01:35:43.257Z,15.53
2019-04-27T01:38:11.970Z,15.48
2019-04-27T01:40:41.036Z,15.35
2019-04-27T01:43:09.855Z,15.08
2019-04-27T01:45:39.156Z,14.58
2019-04-27T01:48:20.845Z,14.33
2019-04-27T01:50:39.262Z,15.08
2019-04-27T01:53:09.118Z,14.75
2019-04-27T01:55:45.760Z,16.37
2019-04-27T01:58:14.669Z,14.70
2019-04-27T02:00:53.931Z,16.80
2019-04-27T02:03:24.832Z,16.42
2019-04-27T02:05:55.046Z,15.98
2019-04-27T02:08:23.813Z,16.70
2019-04-27T02:10:52.726Z,18.37
2019-04-27T02:13:22.949Z,19.35
2019-04-27T02:15:51.817Z,17.85
2019-04-27T02:18:34.690Z,17.80
2019-04-27T02:20:52.878Z,20.70
2019-04-27T02:23:21.762Z,22.48
2019-04-27T02:25:50.759Z,22.02
2019-04-27T02:28:37.273Z,20.97
2019-04-27T02:31:09.806Z,20.57
2019-04-27T02:33:49.858Z,20.72
2019-04-27T02:36:20.211Z,21.02
2019-04-27T02:38:51.277Z,19.62
2019-04-27T02:41:20.089Z,20.82
2019-04-27T02:43:53.535Z,21.05
2019-04-27T02:46:22.330Z,23.75
2019-04-27T02:49:00.211Z,23.47
2019-04-27T02:51:46.584Z,22.85
2019-04-27T02:54:15.310Z,22.40
2019-04-27T02:56:44.099Z,21.48
2019-04-27T02:59:12.908Z,20.55
2019-04-27T03:01:53.222Z,20.92
2019-04-27T03:04:20.803Z,19.82
2019-04-27T03:06:50.174Z,20.15
2019-04-27T03:09:20.560Z,19.48
2019-04-27T03:11:50.090Z,19.98
2019-04-27T03:14:29.789Z,19.17
2019-04-27T03:16:55.619Z,18.92
2019-04-27T03:19:35.242Z,19.40
2019-04-27T03:22:05.590Z,19.40
2019-04-27T03:24:52.268Z,18.82
2019-04-27T03:27:22.510Z,18.17
2019-04-27T03:29:53.839Z,16.97
2019-04-27T03:32:25.334Z,18.37
2019-04-27T03:34:56.686Z,18.32
2019-04-27T03:37:25.830Z,17.70
2019-04-27T03:39:54.689Z,18.37
2019-04-27T03:42:23.335Z,18.60
2019-04-27T03:44:52.012Z,18.10
2019-04-27T03:47:21.697Z,19.07
2019-04-27T03:49:50.908Z,18.65
2019-04-27T03:52:29.758Z,18.02
2019-04-27T03:55:10.151Z,18.12
2019-04-27T03:57:40.408Z,18.25
2019-04-27T04:00:20.139Z,19.15
2019-04-27T04:02:50.201Z,18.80
2019-04-27T04:05:22.665Z,18.40
2019-04-27T04:07:51.340Z,17.92
2019-04-27T04:10:20.331Z,18.25
2019-04-27T04:13:01.307Z,17.67
2019-04-27T04:15:44.715Z,19.42
2019-04-27T04:18:14.841Z,18.50
2019-04-27T04:20:43.629Z,19.17
2019-04-27T04:23:12.426Z,18.67
2019-04-27T04:25:45.096Z,18.57
2019-04-27T04:28:13.799Z,18.40
2019-04-27T04:30:42.591Z,17.75
2019-04-27T04:33:11.269Z,17.82
2019-04-27T04:35:40.131Z,18.10
2019-04-27T04:38:10.432Z,18.25
2019-04-27T04:40:50.242Z,17.32
2019-04-27T04:43:36.325Z,18.23
2019-04-27T04:46:23.272Z,18.25
2019-04-27T04:48:52.137Z,16.70
2019-04-27T04:51:24.885Z,17.05
2019-04-27T04:53:56.445Z,16.07
2019-04-27T04:56:25.539Z,16.10
2019-04-27T04:58:57.389Z,17.10
2019-04-27T05:01:29.869Z,18.32
2019-04-27T05:03:59.171Z,17.97
2019-04-27T05:06:29.247Z,17.23
2019-04-27T05:09:00.947Z,17.15
2019-04-27T05:11:30.034Z,15.98
2019-04-27T05:14:01.399Z,17.57
2019-04-27T05:16:32.784Z,17.67
2019-04-27T05:19:01.412Z,16.65
2019-04-27T05:21:34.975Z,17.00
2019-04-27T05:26:33.278Z,15.88
2019-04-27T05:29:03.942Z,16.15
2019-04-27T05:31:34.054Z,16.07
2019-04-27T05:34:03.152Z,14.98
2019-04-27T05:36:32.243Z,15.08
2019-04-27T05:39:01.337Z,12.75
2019-04-27T05:41:31.158Z,11.33
2019-04-27T05:44:03.225Z,11.25
2019-04-27T05:46:51.169Z,12.00
2019-04-27T05:49:31.313Z,11.00
2019-04-27T05:52:00.328Z,11.43
2019-04-27T05:54:31.173Z,11.48
2019-04-27T05:57:00.328Z,11.38
2019-04-27T05:59:29.916Z,12.37
2019-04-27T06:01:59.364Z,10.82
2019-04-27T06:04:34.681Z,10.15
2019-04-27T06:07:03.879Z,10.25
2019-04-27T06:09:33.178Z,11.28
2019-04-27T06:12:06.372Z,11.53
2019-04-27T06:14:37.034Z,11.28
2019-04-27T06:17:06.309Z,10.30
2019-04-27T06:19:35.398Z,9.80
2019-04-27T06:22:04.745Z,9.90
2019-04-27T06:24:33.888Z,10.40
2019-04-27T06:27:02.988Z,10.10
2019-04-27T06:29:32.079Z,10.93
2019-04-27T06:32:01.173Z,10.70
2019-04-27T06:34:30.967Z,10.48
2019-04-27T06:37:00.435Z,10.60
2019-04-27T06:39:29.925Z,11.00
2019-04-27T06:42:01.362Z,10.65
2019-04-27T06:44:30.640Z,11.00
2019-04-27T06:46:59.738Z,10.00
2019-04-27T06:49:29.485Z,12.13
2019-04-27T06:51:58.861Z,14.30
2019-04-27T06:54:28.830Z,13.62
2019-04-27T06:56:59.293Z,10.68
2019-04-27T06:59:28.994Z,10.85
2019-04-27T07:01:59.150Z,9.28
2019-04-27T07:04:29.972Z,9.13
2019-04-27T07:07:01.731Z,9.80
2019-04-27T07:09:34.696Z,11.05
2019-04-27T07:12:03.895Z,9.85
2019-04-27T07:14:32.993Z,10.58
2019-04-27T07:17:02.183Z,10.28
2019-04-27T07:19:31.346Z,12.20
2019-04-27T07:22:04.810Z,10.78
2019-04-27T07:24:36.333Z,10.58
2019-04-27T07:27:05.935Z,11.73
2019-04-27T07:29:39.049Z,11.38
2019-04-27T07:32:09.301Z,10.93
2019-04-27T07:34:42.579Z,11.60
2019-04-27T07:37:16.656Z,10.35
2019-04-27T07:39:45.753Z,10.65
2019-04-27T07:42:14.943Z,12.68
2019-04-27T07:44:45.679Z,11.53
2019-04-27T07:47:31.581Z,11.03
2019-04-27T07:50:01.477Z,10.95
2019-04-27T07:52:30.787Z,10.55
2019-04-27T07:55:00.034Z,10.25
2019-04-27T07:57:33.680Z,9.70
2019-04-27T08:00:02.900Z,8.45
2019-04-27T08:02:33.001Z,9.13
2019-04-27T08:05:02.504Z,9.00
2019-04-27T08:07:31.600Z,7.55
2019-04-27T08:10:05.403Z,8.43
2019-04-27T08:12:34.508Z,8.88
2019-04-27T08:15:03.695Z,8.50
2019-04-27T08:17:36.141Z,8.85
2019-04-27T08:20:09.195Z,8.53
2019-04-27T08:22:39.348Z,8.73
2019-04-27T08:25:12.796Z,9.48
2019-04-27T08:27:50.596Z,9.83
2019-04-27T08:30:22.155Z,8.98
2019-04-27T08:32:53.901Z,9.18
2019-04-27T08:35:23.081Z,9.10
2019-04-27T08:37:52.170Z,9.08
2019-04-27T08:40:21.476Z,9.08
2019-04-27T08:42:51.274Z,7.75
2019-04-27T08:45:21.810Z,8.68
2019-04-27T08:47:52.030Z,8.08
2019-04-27T08:50:21.024Z,8.15
2019-04-27T08:52:50.421Z,8.50
2019-04-27T08:55:19.729Z,9.18
2019-04-27T08:57:49.211Z,7.95
2019-04-27T09:00:19.969Z,7.90
2019-04-27T09:02:50.218Z,8.13
2019-04-27T09:05:21.325Z,9.45
2019-04-27T09:07:59.718Z,9.43
2019-04-27T09:10:30.581Z,9.10
2019-04-27T09:13:20.054Z,7.37
2019-04-27T09:16:00.075Z,9.43
2019-04-27T09:18:33.841Z,9.75
2019-04-27T09:21:04.433Z,7.60
2019-04-27T09:23:33.529Z,7.95
2019-04-27T09:26:02.625Z,7.95
2019-04-27T09:28:31.823Z,8.13
2019-04-27T09:31:00.925Z,9.10
2019-04-27T09:33:30.971Z,8.98
2019-04-27T09:36:00.152Z,9.40
2019-04-27T09:38:29.791Z,9.15
2019-04-27T09:40:59.163Z,8.15
2019-04-27T09:43:28.231Z,8.50
2019-04-27T09:45:57.327Z,8.60
2019-04-27T09:48:26.421Z,7.80
2019-04-27T09:50:55.994Z,7.65
2019-04-27T09:53:27.069Z,7.28
2019-04-27T09:55:56.374Z,7.22
2019-04-27T09:58:26.492Z,7.95
2019-04-27T10:00:56.839Z,7.00
2019-04-27T10:03:26.638Z,7.80
2019-04-27T10:05:57.065Z,8.15
2019-04-27T10:08:26.352Z,8.10
2019-04-27T10:10:56.657Z,7.80
2019-04-27T10:13:27.471Z,7.58
2019-04-27T10:15:56.531Z,7.95
2019-04-27T10:18:26.550Z,8.00
2019-04-27T10:20:59.698Z,8.15
2019-04-27T10:23:30.350Z,8.08
2019-04-27T10:26:02.949Z,8.15
2019-04-27T10:28:33.038Z,7.80
2019-04-27T10:31:04.792Z,7.47
2019-04-27T10:33:35.769Z,8.25
2019-04-27T10:36:06.333Z,7.92
2019-04-27T10:38:35.953Z,8.55
2019-04-27T10:41:05.665Z,8.23
2019-04-27T10:43:38.469Z,7.03
2019-04-27T10:46:07.551Z,6.50
2019-04-27T10:48:36.808Z,6.70
2019-04-27T10:51:07.867Z,7.05
2019-04-27T10:53:38.906Z,7.00
2019-04-27T10:56:07.523Z,7.80
2019-04-27T10:58:37.635Z,6.92
2019-04-27T11:01:08.267Z,7.55
2019-04-27T11:03:57.317Z,7.42
2019-04-27T11:06:42.063Z,9.60
2019-04-27T11:09:16.406Z,16.93
2019-04-27T11:11:46.370Z,19.92
2019-04-27T11:14:16.751Z,17.27
2019-04-27T11:16:46.128Z,17.10
2019-04-27T11:19:17.807Z,16.48
2019-04-27T11:21:46.902Z,17.98
2019-04-27T11:24:16.060Z,21.10
2019-04-27T11:26:46.568Z,17.25
2019-04-27T11:29:15.822Z,18.85
2019-04-27T11:31:46.398Z,18.17
2019-04-27T11:34:15.754Z,17.12
2019-04-27T11:36:47.421Z,19.87
2019-04-27T11:39:19.701Z,17.98
2019-04-27T11:41:47.746Z,18.48
2019-04-27T11:44:17.101Z,16.97
2019-04-27T11:46:50.056Z,17.02
2019-04-27T11:49:19.126Z,18.30
2019-04-27T11:51:48.221Z,16.10
2019-04-27T11:54:17.341Z,14.45
2019-04-27T11:56:48.871Z,16.32
2019-04-27T11:59:20.441Z,14.20
2019-04-27T12:01:49.618Z,13.22
2019-04-27T12:04:18.714Z,11.00
2019-04-27T12:06:47.809Z,10.85
2019-04-27T12:09:17.022Z,10.45
2019-04-27T12:11:46.099Z,11.15
2019-04-27T12:14:15.304Z,9.98
2019-04-27T12:16:46.057Z,9.30
2019-04-27T12:19:16.419Z,10.28
2019-04-27T12:21:46.354Z,11.15
2019-04-27T12:24:19.693Z,8.90
2019-04-27T12:26:55.563Z,9.45
2019-04-27T12:29:26.774Z,9.90
2019-04-27T12:31:59.524Z,11.28
2019-04-27T12:34:28.639Z,11.30
2019-04-27T12:36:58.962Z,10.35
2019-04-27T12:39:27.979Z,9.53
2019-04-27T12:41:57.048Z,10.28
2019-04-27T12:44:26.245Z,9.75
2019-04-27T12:46:57.538Z,9.00
2019-04-27T12:49:26.258Z,8.85
2019-04-27T12:51:55.870Z,9.10
2019-04-27T12:54:31.676Z,9.70
2019-04-27T12:57:01.869Z,10.40
2019-04-27T12:59:49.184Z,9.53
2019-04-27T13:02:22.737Z,9.13
2019-04-27T13:07:20.054Z,9.60
2019-04-27T13:09:53.957Z,9.28
2019-04-27T13:12:23.465Z,9.35
2019-04-27T13:14:53.580Z,11.90
2019-04-27T13:17:27.691Z,11.48
2019-04-27T13:19:56.896Z,11.43
2019-04-27T13:22:25.986Z,10.65
2019-04-27T13:24:56.556Z,11.65
2019-04-27T13:27:26.972Z,11.73
2019-04-27T13:29:57.411Z,12.18
2019-04-27T13:32:26.674Z,11.57
2019-04-27T13:34:56.717Z,12.23
2019-04-27T13:37:33.392Z,10.68
2019-04-27T13:40:07.121Z,9.75
2019-04-27T13:42:35.072Z,8.85
2019-04-27T13:45:06.439Z,8.85
2019-04-27T13:47:52.258Z,8.60
2019-04-27T13:50:29.955Z,8.50
2019-04-27T13:52:59.052Z,8.68
2019-04-27T13:55:28.042Z,7.92
2019-04-27T13:57:57.272Z,9.10
2019-04-27T14:00:26.339Z,7.67
2019-04-27T14:02:57.922Z,7.95
2019-04-27T14:05:26.983Z,7.92
2019-04-27T14:08:00.833Z,8.25
2019-04-27T14:10:29.890Z,8.85
2019-04-27T14:12:59.213Z,8.35
2019-04-27T14:15:28.913Z,8.55
2019-04-27T14:17:59.165Z,8.20
2019-04-27T14:20:34.555Z,8.83
2019-04-27T14:23:18.807Z,9.43
2019-04-27T14:25:50.481Z,9.10
2019-04-27T14:28:19.658Z,8.53
2019-04-27T14:30:51.127Z,9.45
2019-04-27T14:33:20.206Z,10.20
2019-04-27T14:35:49.987Z,9.53
2019-04-27T14:38:23.426Z,10.35
2019-04-27T14:40:52.608Z,10.25
2019-04-27T14:43:21.703Z,10.53
2019-04-27T14:45:50.799Z,10.72
2019-04-27T14:48:19.891Z,10.13
2019-04-27T14:50:51.296Z,10.68
2019-04-27T14:53:20.552Z,10.43
2019-04-27T14:55:49.327Z,10.48
2019-04-27T14:58:19.153Z,10.55
2019-04-27T15:00:49.882Z,9.75
2019-04-27T15:03:21.645Z,10.50
2019-04-27T15:05:53.800Z,10.93
2019-04-27T15:08:22.011Z,9.78
2019-04-27T15:10:51.174Z,9.40
2019-04-27T15:13:21.100Z,9.15
2019-04-27T15:15:52.755Z,10.48
2019-04-27T15:18:24.358Z,9.70
2019-04-27T15:20:54.509Z,9.45
2019-04-27T15:23:26.645Z,8.43
2019-04-27T15:25:55.467Z,9.93
2019-04-27T15:28:26.197Z,8.80
2019-04-27T15:30:59.663Z,7.90
2019-04-27T15:36:28.298Z,8.00
2019-04-27T15:38:59.132Z,8.58
2019-04-27T15:41:41.947Z,8.53
2019-04-27T15:44:12.800Z,7.33
2019-04-27T15:46:43.620Z,13.22
2019-04-27T15:49:12.730Z,7.00
2019-04-27T15:51:42.175Z,8.25
2019-04-27T15:54:15.567Z,7.50
2019-04-27T15:56:44.606Z,7.12
2019-04-27T15:59:13.703Z,8.00
2019-04-27T16:01:43.003Z,7.37
2019-04-27T16:04:12.321Z,8.55
2019-04-27T16:06:42.912Z,8.85
2019-04-27T16:09:16.145Z,7.85
2019-04-27T16:11:50.194Z,8.47
2019-04-27T16:14:15.674Z,7.35
2019-04-27T16:16:45.761Z,7.60
2019-04-27T16:19:15.166Z,7.42
2019-04-27T16:21:47.691Z,7.25
2019-04-27T16:24:16.916Z,7.58
2019-04-27T16:26:54.701Z,6.62
2019-04-27T16:29:27.071Z,6.95
2019-04-27T16:31:54.057Z,7.05
2019-04-27T16:34:23.595Z,6.90
2019-04-27T16:36:52.856Z,6.40
2019-04-27T16:39:23.223Z,7.25
2019-04-27T16:41:52.383Z,6.85
2019-04-27T16:44:21.473Z,7.08
2019-04-27T16:46:50.575Z,6.72
2019-04-27T16:49:21.813Z,6.58
2019-04-27T16:51:51.021Z,7.80
2019-04-27T16:54:21.268Z,7.22
2019-04-27T16:57:02.189Z,7.33
2019-04-27T17:01:58.861Z,7.83
2019-04-27T17:04:29.089Z,9.53
2019-04-27T17:06:59.088Z,7.00
2019-04-27T17:09:29.279Z,7.35
2019-04-27T17:12:00.780Z,6.50
2019-04-27T17:12:40.261Z,6.10
2019-04-27T17:14:43.589Z,7.05
2019-04-27T17:17:30.604Z,6.92
2019-04-27T17:20:03.829Z,7.05
2019-04-27T17:22:33.923Z,7.80
2019-04-27T17:25:03.011Z,6.78
2019-04-27T17:27:33.763Z,7.30
2019-04-27T17:30:10.246Z,18.02
2019-04-27T17:32:40.845Z,9.20
2019-04-27T17:35:14.742Z,7.53
2019-04-27T17:37:43.139Z,7.45
2019-04-27T17:40:16.623Z,8.10
2019-04-27T17:42:48.384Z,7.58
2019-04-27T17:45:21.377Z,7.65
2019-04-27T17:47:50.543Z,8.30
2019-04-27T17:50:25.073Z,8.93
2019-04-27T17:52:55.003Z,7.90
2019-04-27T17:55:24.535Z,9.30
2019-04-27T17:57:52.774Z,9.73
2019-04-27T18:00:22.729Z,9.20
2019-04-27T18:02:54.109Z,9.15
2019-04-27T18:05:23.235Z,9.20
2019-04-27T18:07:53.220Z,9.93
2019-04-27T18:10:24.281Z,10.05
2019-04-27T18:12:53.199Z,11.70
2019-04-27T18:15:22.275Z,10.75
2019-04-27T18:18:01.516Z,10.03
2019-04-27T18:20:31.561Z,11.33
2019-04-27T18:23:02.394Z,10.30
2019-04-27T18:25:35.595Z,10.75
2019-04-27T18:28:16.129Z,11.40
2019-04-27T18:31:00.983Z,11.57
2019-04-27T18:33:32.632Z,15.90
2019-04-27T18:36:05.215Z,13.25
2019-04-27T18:38:35.438Z,13.08
2019-04-27T18:41:08.139Z,12.50
2019-04-27T18:43:35.672Z,11.63
2019-04-27T18:46:05.406Z,11.95
2019-04-27T18:48:37.766Z,11.80
2019-04-27T18:51:25.072Z,12.03
2019-04-27T18:54:03.569Z,11.88
2019-04-27T18:56:44.664Z,22.42
2019-04-27T18:59:21.549Z,48.95
2019-04-27T19:01:50.736Z,64.97
2019-04-27T19:04:23.363Z,31.80
2019-04-27T19:07:00.034Z,28.25
2019-04-27T19:09:29.081Z,16.70
2019-04-27T19:12:01.864Z,24.05
2019-04-27T19:14:30.973Z,16.10
2019-04-27T19:17:00.053Z,14.55
2019-04-27T19:19:29.147Z,19.02
2019-04-27T19:22:02.234Z,18.07
2019-04-27T19:24:35.375Z,18.62
2019-04-27T19:27:22.749Z,17.32
2019-04-27T19:29:56.450Z,17.90
2019-04-27T19:34:54.332Z,12.68
2019-04-27T19:37:23.444Z,13.50
2019-04-27T19:39:58.246Z,13.60
2019-04-27T19:42:28.562Z,13.38
2019-04-27T19:44:57.917Z,14.90
2019-04-27T19:47:27.096Z,17.35
2019-04-27T19:49:56.176Z,19.30
2019-04-27T19:52:29.262Z,19.77
2019-04-27T19:54:58.548Z,15.63
2019-04-27T19:57:36.398Z,14.93
2019-04-27T20:00:02.180Z,13.35
2019-04-27T20:02:31.392Z,14.90
2019-04-27T20:05:02.007Z,14.05
2019-04-27T20:07:31.100Z,12.35
2019-04-27T20:10:00.715Z,14.05
2019-04-27T20:12:31.328Z,13.58
2019-04-27T20:15:04.035Z,12.58
2019-04-27T20:17:33.427Z,11.38
2019-04-27T20:20:03.922Z,12.47
2019-04-27T20:22:35.306Z,13.22
2019-04-27T20:25:05.822Z,12.40
2019-04-27T20:27:45.971Z,14.00
2019-04-27T20:30:11.112Z,14.33
2019-04-27T20:32:40.502Z,13.48
2019-04-27T20:35:11.646Z,14.33
2019-04-27T20:37:41.546Z,13.32
2019-04-27T20:40:11.610Z,12.40
2019-04-27T20:42:41.530Z,13.60
2019-04-27T20:45:12.040Z,14.13
2019-04-27T20:47:41.297Z,14.35
2019-04-27T20:50:10.396Z,14.00
2019-04-27T20:52:41.126Z,12.47
2019-04-27T20:55:11.268Z,12.20
2019-04-27T20:57:41.671Z,11.80
2019-04-27T21:00:12.194Z,11.15
2019-04-27T21:03:01.976Z,11.65
2019-04-27T21:05:32.711Z,11.22
2019-04-27T21:08:03.443Z,11.68
2019-04-27T21:10:32.665Z,11.10
2019-04-27T21:13:01.840Z,10.85
2019-04-27T21:15:31.501Z,10.38
2019-04-27T21:18:01.292Z,10.15
2019-04-27T21:20:30.976Z,9.25
2019-04-27T21:23:01.925Z,9.00
2019-04-27T21:25:31.524Z,9.70
2019-04-27T21:28:14.913Z,9.55
2019-04-27T21:30:32.465Z,8.85
2019-04-27T21:33:02.588Z,9.15
2019-04-27T21:35:31.677Z,8.70
2019-04-27T21:38:01.548Z,8.38
2019-04-27T21:40:31.612Z,8.75
2019-04-27T21:43:01.161Z,8.18
2019-04-27T21:45:31.783Z,8.78
2019-04-27T21:48:01.047Z,8.80
2019-04-27T21:50:31.439Z,8.55
2019-04-27T21:53:17.378Z,8.75
2019-04-27T21:55:47.999Z,7.72
2019-04-27T21:58:28.603Z,7.67
2019-04-27T22:00:52.939Z,7.30
2019-04-27T22:03:23.652Z,8.05
2019-04-27T22:05:52.971Z,7.58
2019-04-27T22:08:22.170Z,7.65
2019-04-27T22:10:51.265Z,7.42
2019-04-27T22:13:22.213Z,7.67
2019-04-27T22:15:52.012Z,7.95
2019-04-27T22:18:21.268Z,7.60
2019-04-27T22:20:54.503Z,6.90
2019-04-27T22:23:25.012Z,7.50
2019-04-27T22:25:58.119Z,7.83
2019-04-27T22:28:27.214Z,7.05
2019-04-27T22:30:56.515Z,7.20
2019-04-27T22:33:25.612Z,7.33
2019-04-27T22:35:54.807Z,6.70
2019-04-27T22:38:25.137Z,6.90
2019-04-27T22:40:58.526Z,7.55
2019-04-27T22:43:37.874Z,6.92
2019-04-27T22:46:08.491Z,7.17
2019-04-27T22:48:37.554Z,6.95
2019-04-27T22:51:09.218Z,7.45
2019-04-27T22:53:38.334Z,7.22
2019-04-27T22:56:13.472Z,6.80
2019-04-27T22:59:01.672Z,7.17
2019-04-27T23:01:34.599Z,7.42
2019-04-27T23:04:12.603Z,6.90
2019-04-27T23:06:41.902Z,8.10
2019-04-27T23:09:11.922Z,8.13
2019-04-27T23:11:41.501Z,7.53
2019-04-27T23:14:13.390Z,7.20
2019-04-27T23:16:44.014Z,7.55
2019-04-27T23:19:13.050Z,7.47
2019-04-27T23:21:42.204Z,7.60
2019-04-27T23:24:11.299Z,7.30
2019-04-27T23:26:40.330Z,7.47
2019-04-27T23:29:14.663Z,7.83
2019-04-27T23:31:57.731Z,7.42
2019-04-27T23:34:28.029Z,7.58
2019-04-27T23:36:57.253Z,7.58
2019-04-27T23:39:29.014Z,7.60
2019-04-27T23:41:56.978Z,7.08
2019-04-27T23:44:26.075Z,7.30
2019-04-27T23:46:55.170Z,7.50
2019-04-27T23:49:24.264Z,7.03
2019-04-27T23:52:00.940Z,7.55
2019-04-27T23:54:31.058Z,7.58
2019-04-27T23:57:01.733Z,9.15
2019-04-27T23:59:31.523Z,7.00
